sensor_id;sensor_type;location;lat;lon;timestamp;P1;durP1;ratioP1;P2;durP2;ratioP2
29576;SDS011;16509;53.862;10.672;2022-11-22T00:01:10;27.42;;;13.02;;
29576;SDS011;16509;53.862;10.672;2022-11-22T00:03:36;26.55;;;11.55;;
29576;SDS011;16509;53.862;10.672;2022-11-22T00:06:01;25.80;;;10.77;;
29576;SDS011;16509;53.862;10.672;2022-11-22T00:08:27;31.55;;;12.73;;
29576;SDS011;16509;53.862;10.672;2022-11-22T00:10:53;27.00;;;12.23;;
29576;SDS011;16509;53.862;10.672;2022-11-22T00:13:18;25.02;;;12.10;;
29576;SDS011;16509;53.862;10.672;2022-11-22T00:15:55;29.15;;;12.27;;
29576;SDS011;16509;53.862;10.672;2022-11-22T00:18:22;28.42;;;12.57;;
29576;SDS011;16509;53.862;10.672;2022-11-22T00:20:48;26.67;;;12.27;;
29576;SDS011;16509;53.862;10.672;2022-11-22T00:23:13;30.35;;;12.07;;
29576;SDS011;16509;53.862;10.672;2022-11-22T00:25:39;28.63;;;12.98;;
29576;SDS011;16509;53.862;10.672;2022-11-22T00:28:05;27.40;;;11.63;;
29576;SDS011;16509;53.862;10.672;2022-11-22T00:30:30;29.42;;;11.65;;
29576;SDS011;16509;53.862;10.672;2022-11-22T00:32:56;34.60;;;10.95;;
29576;SDS011;16509;53.862;10.672;2022-11-22T00:35:22;26.95;;;12.60;;
29576;SDS011;16509;53.862;10.672;2022-11-22T00:37:47;25.33;;;11.15;;
29576;SDS011;16509;53.862;10.672;2022-11-22T00:40:13;34.15;;;13.18;;
29576;SDS011;16509;53.862;10.672;2022-11-22T00:42:39;31.98;;;11.45;;
29576;SDS011;16509;53.862;10.672;2022-11-22T00:45:04;27.40;;;11.52;;
29576;SDS011;16509;53.862;10.672;2022-11-22T00:47:30;30.88;;;12.57;;
29576;SDS011;16509;53.862;10.672;2022-11-22T00:49:56;29.83;;;11.07;;
29576;SDS011;16509;53.862;10.672;2022-11-22T00:52:21;26.60;;;12.20;;
29576;SDS011;16509;53.862;10.672;2022-11-22T00:54:47;36.15;;;12.82;;
29576;SDS011;16509;53.862;10.672;2022-11-22T00:57:12;30.63;;;13.32;;
29576;SDS011;16509;53.862;10.672;2022-11-22T00:59:39;25.48;;;11.35;;
29576;SDS011;16509;53.862;10.672;2022-11-22T01:02:05;27.67;;;12.75;;
29576;SDS011;16509;53.862;10.672;2022-11-22T01:04:30;24.67;;;10.65;;
29576;SDS011;16509;53.862;10.672;2022-11-22T01:06:56;26.00;;;11.68;;
29576;SDS011;16509;53.862;10.672;2022-11-22T01:09:22;23.92;;;11.40;;
29576;SDS011;16509;53.862;10.672;2022-11-22T01:11:48;30.17;;;11.38;;
29576;SDS011;16509;53.862;10.672;2022-11-22T01:14:14;31.35;;;12.77;;
29576;SDS011;16509;53.862;10.672;2022-11-22T01:16:40;30.90;;;11.65;;
29576;SDS011;16509;53.862;10.672;2022-11-22T01:19:06;25.50;;;11.93;;
29576;SDS011;16509;53.862;10.672;2022-11-22T01:21:32;31.02;;;12.45;;
29576;SDS011;16509;53.862;10.672;2022-11-22T01:23:57;33.70;;;13.82;;
29576;SDS011;16509;53.862;10.672;2022-11-22T01:26:23;26.92;;;11.90;;
29576;SDS011;16509;53.862;10.672;2022-11-22T01:28:50;34.38;;;12.70;;
29576;SDS011;16509;53.862;10.672;2022-11-22T01:31:15;28.48;;;12.55;;
29576;SDS011;16509;53.862;10.672;2022-11-22T01:33:41;35.78;;;13.55;;
29576;SDS011;16509;53.862;10.672;2022-11-22T01:36:07;29.83;;;12.75;;
29576;SDS011;16509;53.862;10.672;2022-11-22T01:38:32;32.50;;;12.38;;
29576;SDS011;16509;53.862;10.672;2022-11-22T01:40:58;29.67;;;12.30;;
29576;SDS011;16509;53.862;10.672;2022-11-22T01:43:24;29.67;;;12.38;;
29576;SDS011;16509;53.862;10.672;2022-11-22T01:45:54;32.00;;;13.00;;
29576;SDS011;16509;53.862;10.672;2022-11-22T01:48:26;30.77;;;12.48;;
29576;SDS011;16509;53.862;10.672;2022-11-22T01:51:16;27.83;;;11.18;;
29576;SDS011;16509;53.862;10.672;2022-11-22T01:53:46;36.42;;;14.25;;
29576;SDS011;16509;53.862;10.672;2022-11-22T01:56:13;28.60;;;12.23;;
29576;SDS011;16509;53.862;10.672;2022-11-22T01:58:41;34.22;;;14.13;;
29576;SDS011;16509;53.862;10.672;2022-11-22T02:01:08;37.90;;;12.80;;
29576;SDS011;16509;53.862;10.672;2022-11-22T02:03:35;27.13;;;11.68;;
29576;SDS011;16509;53.862;10.672;2022-11-22T02:06:03;27.88;;;11.73;;
29576;SDS011;16509;53.862;10.672;2022-11-22T02:08:51;23.50;;;12.00;;
29576;SDS011;16509;53.862;10.672;2022-11-22T02:11:31;29.83;;;12.73;;
29576;SDS011;16509;53.862;10.672;2022-11-22T02:13:59;30.92;;;11.82;;
29576;SDS011;16509;53.862;10.672;2022-11-22T02:16:25;29.75;;;11.77;;
29576;SDS011;16509;53.862;10.672;2022-11-22T02:18:51;34.40;;;12.60;;
29576;SDS011;16509;53.862;10.672;2022-11-22T02:21:17;24.98;;;11.57;;
29576;SDS011;16509;53.862;10.672;2022-11-22T02:26:19;27.98;;;12.48;;
29576;SDS011;16509;53.862;10.672;2022-11-22T02:28:45;26.23;;;11.60;;
29576;SDS011;16509;53.862;10.672;2022-11-22T02:34:06;29.20;;;13.10;;
29576;SDS011;16509;53.862;10.672;2022-11-22T02:36:34;27.45;;;11.10;;
29576;SDS011;16509;53.862;10.672;2022-11-22T02:39:03;32.75;;;12.13;;
29576;SDS011;16509;53.862;10.672;2022-11-22T02:41:30;27.58;;;11.40;;
29576;SDS011;16509;53.862;10.672;2022-11-22T02:43:57;24.42;;;11.38;;
29576;SDS011;16509;53.862;10.672;2022-11-22T02:46:23;26.75;;;11.88;;
29576;SDS011;16509;53.862;10.672;2022-11-22T02:48:49;21.30;;;9.55;;
29576;SDS011;16509;53.862;10.672;2022-11-22T02:51:15;27.70;;;10.65;;
29576;SDS011;16509;53.862;10.672;2022-11-22T02:53:45;25.27;;;11.02;;
29576;SDS011;16509;53.862;10.672;2022-11-22T02:56:12;25.58;;;11.45;;
29576;SDS011;16509;53.862;10.672;2022-11-22T02:58:38;20.85;;;10.38;;
29576;SDS011;16509;53.862;10.672;2022-11-22T03:01:03;26.15;;;10.77;;
29576;SDS011;16509;53.862;10.672;2022-11-22T03:03:30;30.35;;;11.95;;
29576;SDS011;16509;53.862;10.672;2022-11-22T03:05:56;23.33;;;11.00;;
29576;SDS011;16509;53.862;10.672;2022-11-22T03:08:22;23.70;;;10.93;;
29576;SDS011;16509;53.862;10.672;2022-11-22T03:10:47;25.77;;;11.20;;
29576;SDS011;16509;53.862;10.672;2022-11-22T03:13:13;26.13;;;10.98;;
29576;SDS011;16509;53.862;10.672;2022-11-22T03:15:38;21.60;;;10.07;;
29576;SDS011;16509;53.862;10.672;2022-11-22T03:18:04;26.48;;;11.27;;
29576;SDS011;16509;53.862;10.672;2022-11-22T03:20:33;30.35;;;11.88;;
29576;SDS011;16509;53.862;10.672;2022-11-22T03:22:59;29.10;;;10.82;;
29576;SDS011;16509;53.862;10.672;2022-11-22T03:25:25;28.50;;;11.35;;
29576;SDS011;16509;53.862;10.672;2022-11-22T03:27:51;23.35;;;11.15;;
29576;SDS011;16509;53.862;10.672;2022-11-22T03:30:17;28.20;;;12.23;;
29576;SDS011;16509;53.862;10.672;2022-11-22T03:32:43;19.73;;;9.68;;
29576;SDS011;16509;53.862;10.672;2022-11-22T03:35:09;27.02;;;10.90;;
29576;SDS011;16509;53.862;10.672;2022-11-22T03:37:35;25.98;;;10.93;;
29576;SDS011;16509;53.862;10.672;2022-11-22T03:40:00;21.10;;;10.48;;
29576;SDS011;16509;53.862;10.672;2022-11-22T03:42:26;22.30;;;10.27;;
29576;SDS011;16509;53.862;10.672;2022-11-22T03:44:52;21.92;;;11.20;;
29576;SDS011;16509;53.862;10.672;2022-11-22T03:47:17;27.13;;;10.73;;
29576;SDS011;16509;53.862;10.672;2022-11-22T03:49:45;27.70;;;11.27;;
29576;SDS011;16509;53.862;10.672;2022-11-22T03:52:11;21.42;;;9.48;;
29576;SDS011;16509;53.862;10.672;2022-11-22T03:54:37;21.73;;;9.90;;
29576;SDS011;16509;53.862;10.672;2022-11-22T03:57:03;23.13;;;10.43;;
29576;SDS011;16509;53.862;10.672;2022-11-22T03:59:29;25.60;;;10.85;;
29576;SDS011;16509;53.862;10.672;2022-11-22T04:01:56;25.15;;;11.27;;
29576;SDS011;16509;53.862;10.672;2022-11-22T04:04:22;24.75;;;10.60;;
29576;SDS011;16509;53.862;10.672;2022-11-22T04:06:47;23.17;;;10.27;;
29576;SDS011;16509;53.862;10.672;2022-11-22T04:09:14;22.85;;;9.85;;
29576;SDS011;16509;53.862;10.672;2022-11-22T04:11:39;20.08;;;9.88;;
29576;SDS011;16509;53.862;10.672;2022-11-22T04:14:05;27.45;;;11.02;;
29576;SDS011;16509;53.862;10.672;2022-11-22T04:16:49;26.45;;;11.23;;
29576;SDS011;16509;53.862;10.672;2022-11-22T04:19:15;23.63;;;10.27;;
29576;SDS011;16509;53.862;10.672;2022-11-22T04:21:40;25.92;;;11.00;;
29576;SDS011;16509;53.862;10.672;2022-11-22T04:24:10;23.92;;;10.35;;
29576;SDS011;16509;53.862;10.672;2022-11-22T04:26:55;26.90;;;10.45;;
29576;SDS011;16509;53.862;10.672;2022-11-22T04:29:21;21.48;;;10.52;;
29576;SDS011;16509;53.862;10.672;2022-11-22T04:31:47;19.92;;;9.73;;
29576;SDS011;16509;53.862;10.672;2022-11-22T04:34:33;22.55;;;9.55;;
29576;SDS011;16509;53.862;10.672;2022-11-22T04:36:59;26.77;;;10.77;;
29576;SDS011;16509;53.862;10.672;2022-11-22T04:39:25;26.33;;;11.38;;
29576;SDS011;16509;53.862;10.672;2022-11-22T04:44:38;27.58;;;10.90;;
29576;SDS011;16509;53.862;10.672;2022-11-22T04:47:07;23.70;;;11.27;;
29576;SDS011;16509;53.862;10.672;2022-11-22T04:49:33;30.70;;;11.93;;
29576;SDS011;16509;53.862;10.672;2022-11-22T04:51:59;27.20;;;10.95;;
29576;SDS011;16509;53.862;10.672;2022-11-22T04:54:44;25.95;;;10.85;;
29576;SDS011;16509;53.862;10.672;2022-11-22T04:57:09;22.33;;;10.70;;
29576;SDS011;16509;53.862;10.672;2022-11-22T04:59:35;23.67;;;10.13;;
29576;SDS011;16509;53.862;10.672;2022-11-22T05:02:00;34.22;;;11.23;;
29576;SDS011;16509;53.862;10.672;2022-11-22T05:04:26;31.92;;;11.07;;
29576;SDS011;16509;53.862;10.672;2022-11-22T05:06:51;29.20;;;11.20;;
29576;SDS011;16509;53.862;10.672;2022-11-22T05:09:17;32.10;;;11.18;;
29576;SDS011;16509;53.862;10.672;2022-11-22T05:11:43;28.85;;;10.10;;
29576;SDS011;16509;53.862;10.672;2022-11-22T05:14:09;28.58;;;11.98;;
29576;SDS011;16509;53.862;10.672;2022-11-22T05:16:34;21.35;;;10.38;;
29576;SDS011;16509;53.862;10.672;2022-11-22T05:19:00;23.80;;;10.85;;
29576;SDS011;16509;53.862;10.672;2022-11-22T05:21:26;23.75;;;10.50;;
29576;SDS011;16509;53.862;10.672;2022-11-22T05:23:53;28.35;;;11.65;;
29576;SDS011;16509;53.862;10.672;2022-11-22T05:26:39;26.92;;;10.88;;
29576;SDS011;16509;53.862;10.672;2022-11-22T05:29:06;27.52;;;10.85;;
29576;SDS011;16509;53.862;10.672;2022-11-22T05:31:34;25.88;;;11.70;;
29576;SDS011;16509;53.862;10.672;2022-11-22T05:34:01;23.90;;;11.05;;
29576;SDS011;16509;53.862;10.672;2022-11-22T05:36:29;31.17;;;11.40;;
29576;SDS011;16509;53.862;10.672;2022-11-22T05:38:56;28.63;;;10.48;;
29576;SDS011;16509;53.862;10.672;2022-11-22T05:41:23;22.38;;;10.63;;
29576;SDS011;16509;53.862;10.672;2022-11-22T05:43:49;24.50;;;11.00;;
29576;SDS011;16509;53.862;10.672;2022-11-22T05:46:16;24.13;;;10.25;;
29576;SDS011;16509;53.862;10.672;2022-11-22T05:48:44;29.70;;;11.00;;
29576;SDS011;16509;53.862;10.672;2022-11-22T05:51:11;23.10;;;10.50;;
29576;SDS011;16509;53.862;10.672;2022-11-22T05:53:38;25.50;;;10.30;;
29576;SDS011;16509;53.862;10.672;2022-11-22T05:56:08;24.95;;;11.05;;
29576;SDS011;16509;53.862;10.672;2022-11-22T05:58:35;29.63;;;10.55;;
29576;SDS011;16509;53.862;10.672;2022-11-22T06:01:09;24.95;;;10.55;;
29576;SDS011;16509;53.862;10.672;2022-11-22T06:03:36;31.88;;;11.52;;
29576;SDS011;16509;53.862;10.672;2022-11-22T06:06:03;25.20;;;10.95;;
29576;SDS011;16509;53.862;10.672;2022-11-22T06:08:30;24.67;;;11.57;;
29576;SDS011;16509;53.862;10.672;2022-11-22T06:11:03;22.90;;;10.93;;
29576;SDS011;16509;53.862;10.672;2022-11-22T06:13:35;31.23;;;12.02;;
29576;SDS011;16509;53.862;10.672;2022-11-22T06:16:02;28.38;;;11.77;;
29576;SDS011;16509;53.862;10.672;2022-11-22T06:18:29;23.60;;;11.15;;
29576;SDS011;16509;53.862;10.672;2022-11-22T06:20:59;25.67;;;12.15;;
29576;SDS011;16509;53.862;10.672;2022-11-22T06:23:26;30.65;;;12.88;;
29576;SDS011;16509;53.862;10.672;2022-11-22T06:25:56;27.38;;;12.27;;
29576;SDS011;16509;53.862;10.672;2022-11-22T06:28:26;36.65;;;12.57;;
29576;SDS011;16509;53.862;10.672;2022-11-22T06:30:59;35.95;;;13.45;;
29576;SDS011;16509;53.862;10.672;2022-11-22T06:33:28;31.90;;;13.25;;
29576;SDS011;16509;53.862;10.672;2022-11-22T06:35:59;24.58;;;12.23;;
29576;SDS011;16509;53.862;10.672;2022-11-22T06:38:36;30.17;;;11.82;;
29576;SDS011;16509;53.862;10.672;2022-11-22T06:41:04;29.65;;;12.52;;
29576;SDS011;16509;53.862;10.672;2022-11-22T06:43:34;26.88;;;12.07;;
29576;SDS011;16509;53.862;10.672;2022-11-22T06:46:03;34.92;;;13.18;;
29576;SDS011;16509;53.862;10.672;2022-11-22T06:48:31;30.55;;;13.45;;
29576;SDS011;16509;53.862;10.672;2022-11-22T06:50:58;32.75;;;11.20;;
29576;SDS011;16509;53.862;10.672;2022-11-22T06:53:34;33.97;;;13.18;;
29576;SDS011;16509;53.862;10.672;2022-11-22T06:56:01;27.38;;;12.43;;
29576;SDS011;16509;53.862;10.672;2022-11-22T06:58:38;30.00;;;12.75;;
29576;SDS011;16509;53.862;10.672;2022-11-22T07:01:05;30.70;;;13.25;;
29576;SDS011;16509;53.862;10.672;2022-11-22T07:03:35;33.17;;;13.55;;
29576;SDS011;16509;53.862;10.672;2022-11-22T07:06:02;26.85;;;12.80;;
29576;SDS011;16509;53.862;10.672;2022-11-22T07:08:29;34.20;;;13.55;;
29576;SDS011;16509;53.862;10.672;2022-11-22T07:10:59;26.65;;;12.35;;
29576;SDS011;16509;53.862;10.672;2022-11-22T07:13:26;35.13;;;13.65;;
29576;SDS011;16509;53.862;10.672;2022-11-22T07:15:57;28.25;;;12.90;;
29576;SDS011;16509;53.862;10.672;2022-11-22T07:18:24;26.87;;;12.30;;
29576;SDS011;16509;53.862;10.672;2022-11-22T07:20:51;28.60;;;12.55;;
29576;SDS011;16509;53.862;10.672;2022-11-22T07:23:17;28.70;;;11.82;;
29576;SDS011;16509;53.862;10.672;2022-11-22T07:25:43;41.15;;;13.73;;
29576;SDS011;16509;53.862;10.672;2022-11-22T07:28:09;29.50;;;11.63;;
29576;SDS011;16509;53.862;10.672;2022-11-22T07:30:36;35.65;;;14.32;;
29576;SDS011;16509;53.862;10.672;2022-11-22T07:33:01;33.55;;;13.45;;
29576;SDS011;16509;53.862;10.672;2022-11-22T07:35:27;28.33;;;12.73;;
29576;SDS011;16509;53.862;10.672;2022-11-22T07:37:53;32.08;;;13.20;;
29576;SDS011;16509;53.862;10.672;2022-11-22T07:40:18;28.98;;;12.35;;
29576;SDS011;16509;53.862;10.672;2022-11-22T07:42:44;29.17;;;12.82;;
29576;SDS011;16509;53.862;10.672;2022-11-22T07:45:09;29.88;;;13.55;;
29576;SDS011;16509;53.862;10.672;2022-11-22T07:47:35;30.38;;;13.10;;
29576;SDS011;16509;53.862;10.672;2022-11-22T07:50:01;33.45;;;12.48;;
29576;SDS011;16509;53.862;10.672;2022-11-22T07:52:26;28.92;;;12.73;;
29576;SDS011;16509;53.862;10.672;2022-11-22T07:54:55;29.33;;;12.68;;
29576;SDS011;16509;53.862;10.672;2022-11-22T07:57:21;31.50;;;12.65;;
29576;SDS011;16509;53.862;10.672;2022-11-22T07:59:46;40.20;;;13.93;;
29576;SDS011;16509;53.862;10.672;2022-11-22T08:02:12;27.60;;;12.43;;
29576;SDS011;16509;53.862;10.672;2022-11-22T08:04:38;27.58;;;12.85;;
29576;SDS011;16509;53.862;10.672;2022-11-22T08:07:04;33.45;;;13.18;;
29576;SDS011;16509;53.862;10.672;2022-11-22T08:09:30;30.85;;;12.73;;
29576;SDS011;16509;53.862;10.672;2022-11-22T08:11:55;31.95;;;13.40;;
29576;SDS011;16509;53.862;10.672;2022-11-22T08:14:21;32.50;;;12.95;;
29576;SDS011;16509;53.862;10.672;2022-11-22T08:16:47;33.42;;;13.50;;
29576;SDS011;16509;53.862;10.672;2022-11-22T08:19:13;32.05;;;12.95;;
29576;SDS011;16509;53.862;10.672;2022-11-22T08:21:40;31.05;;;13.05;;
29576;SDS011;16509;53.862;10.672;2022-11-22T08:24:05;31.08;;;13.02;;
29576;SDS011;16509;53.862;10.672;2022-11-22T08:26:31;31.73;;;11.40;;
29576;SDS011;16509;53.862;10.672;2022-11-22T08:28:58;30.65;;;13.30;;
29576;SDS011;16509;53.862;10.672;2022-11-22T08:31:24;34.88;;;14.73;;
29576;SDS011;16509;53.862;10.672;2022-11-22T08:33:51;27.70;;;12.48;;
29576;SDS011;16509;53.862;10.672;2022-11-22T08:36:17;29.40;;;14.18;;
29576;SDS011;16509;53.862;10.672;2022-11-22T08:38:43;29.42;;;12.88;;
29576;SDS011;16509;53.862;10.672;2022-11-22T08:41:09;33.88;;;14.00;;
29576;SDS011;16509;53.862;10.672;2022-11-22T08:43:35;31.00;;;13.25;;
29576;SDS011;16509;53.862;10.672;2022-11-22T08:46:01;30.10;;;12.73;;
29576;SDS011;16509;53.862;10.672;2022-11-22T08:48:28;33.85;;;14.52;;
29576;SDS011;16509;53.862;10.672;2022-11-22T08:50:56;32.60;;;13.68;;
29576;SDS011;16509;53.862;10.672;2022-11-22T08:53:26;36.08;;;13.82;;
29576;SDS011;16509;53.862;10.672;2022-11-22T08:55:53;28.40;;;13.60;;
29576;SDS011;16509;53.862;10.672;2022-11-22T08:58:19;31.10;;;13.02;;
29576;SDS011;16509;53.862;10.672;2022-11-22T09:00:49;34.90;;;14.73;;
29576;SDS011;16509;53.862;10.672;2022-11-22T09:03:14;28.52;;;12.38;;
29576;SDS011;16509;53.862;10.672;2022-11-22T09:05:40;49.10;;;13.77;;
29576;SDS011;16509;53.862;10.672;2022-11-22T09:08:06;34.72;;;13.80;;
29576;SDS011;16509;53.862;10.672;2022-11-22T09:10:31;36.50;;;13.57;;
29576;SDS011;16509;53.862;10.672;2022-11-22T09:12:57;38.10;;;14.77;;
29576;SDS011;16509;53.862;10.672;2022-11-22T09:15:23;36.75;;;14.05;;
29576;SDS011;16509;53.862;10.672;2022-11-22T09:17:48;31.90;;;13.27;;
29576;SDS011;16509;53.862;10.672;2022-11-22T09:20:14;26.75;;;12.93;;
29576;SDS011;16509;53.862;10.672;2022-11-22T09:22:40;33.67;;;13.90;;
29576;SDS011;16509;53.862;10.672;2022-11-22T09:25:06;32.30;;;13.63;;
29576;SDS011;16509;53.862;10.672;2022-11-22T09:27:32;39.58;;;15.02;;
29576;SDS011;16509;53.862;10.672;2022-11-22T09:29:58;25.83;;;11.70;;
29576;SDS011;16509;53.862;10.672;2022-11-22T09:32:24;29.67;;;14.20;;
29576;SDS011;16509;53.862;10.672;2022-11-22T09:34:49;32.40;;;13.85;;
29576;SDS011;16509;53.862;10.672;2022-11-22T09:37:15;32.47;;;14.13;;
29576;SDS011;16509;53.862;10.672;2022-11-22T09:39:43;34.58;;;14.32;;
29576;SDS011;16509;53.862;10.672;2022-11-22T09:42:14;31.23;;;12.85;;
29576;SDS011;16509;53.862;10.672;2022-11-22T09:53:37;35.00;;;13.80;;
29576;SDS011;16509;53.862;10.672;2022-11-22T09:56:17;28.80;;;12.43;;
29576;SDS011;16509;53.862;10.672;2022-11-22T09:58:50;26.63;;;12.55;;
29576;SDS011;16509;53.862;10.672;2022-11-22T10:06:28;32.17;;;13.80;;
29576;SDS011;16509;53.862;10.672;2022-11-22T10:11:56;33.78;;;14.25;;
29576;SDS011;16509;53.862;10.672;2022-11-22T10:14:29;29.88;;;12.75;;
29576;SDS011;16509;53.862;10.672;2022-11-22T10:22:37;35.25;;;13.93;;
29576;SDS011;16509;53.862;10.672;2022-11-22T10:25:11;33.00;;;14.35;;
29576;SDS011;16509;53.862;10.672;2022-11-22T10:27:41;28.42;;;12.13;;
29576;SDS011;16509;53.862;10.672;2022-11-22T10:30:12;31.98;;;12.45;;
29576;SDS011;16509;53.862;10.672;2022-11-22T10:41:18;27.92;;;13.20;;
29576;SDS011;16509;53.862;10.672;2022-11-22T10:52:15;25.42;;;9.75;;
29576;SDS011;16509;53.862;10.672;2022-11-22T11:08:12;29.45;;;12.80;;
29576;SDS011;16509;53.862;10.672;2022-11-22T11:10:39;26.52;;;12.63;;
29576;SDS011;16509;53.862;10.672;2022-11-22T11:13:13;29.88;;;12.25;;
29576;SDS011;16509;53.862;10.672;2022-11-22T11:15:49;24.00;;;10.98;;
29576;SDS011;16509;53.862;10.672;2022-11-22T11:18:22;29.15;;;12.68;;
29576;SDS011;16509;53.862;10.672;2022-11-22T11:20:58;35.63;;;13.48;;
29576;SDS011;16509;53.862;10.672;2022-11-22T11:23:24;31.35;;;12.18;;
29576;SDS011;16509;53.862;10.672;2022-11-22T11:25:49;33.78;;;15.05;;
29576;SDS011;16509;53.862;10.672;2022-11-22T11:28:20;30.17;;;12.40;;
29576;SDS011;16509;53.862;10.672;2022-11-22T11:33:19;32.90;;;14.98;;
29576;SDS011;16509;53.862;10.672;2022-11-22T11:35:51;32.30;;;12.30;;
29576;SDS011;16509;53.862;10.672;2022-11-22T11:38:30;31.67;;;12.80;;
29576;SDS011;16509;53.862;10.672;2022-11-22T11:43:57;32.30;;;13.40;;
29576;SDS011;16509;53.862;10.672;2022-11-22T11:46:25;78.82;;;18.63;;
29576;SDS011;16509;53.862;10.672;2022-11-22T11:48:52;32.33;;;12.18;;
29576;SDS011;16509;53.862;10.672;2022-11-22T11:51:39;29.23;;;11.98;;
29576;SDS011;16509;53.862;10.672;2022-11-22T11:54:13;30.40;;;11.87;;
29576;SDS011;16509;53.862;10.672;2022-11-22T11:59:16;41.45;;;13.13;;
29576;SDS011;16509;53.862;10.672;2022-11-22T12:01:54;28.15;;;12.32;;
29576;SDS011;16509;53.862;10.672;2022-11-22T12:07:03;29.33;;;11.70;;
29576;SDS011;16509;53.862;10.672;2022-11-22T12:10:00;31.58;;;12.43;;
29576;SDS011;16509;53.862;10.672;2022-11-22T12:12:50;30.30;;;12.68;;
29576;SDS011;16509;53.862;10.672;2022-11-22T12:24:08;31.20;;;12.10;;
29576;SDS011;16509;53.862;10.672;2022-11-22T12:26:36;34.20;;;13.25;;
29576;SDS011;16509;53.862;10.672;2022-11-22T12:29:02;31.58;;;12.05;;
29576;SDS011;16509;53.862;10.672;2022-11-22T12:31:30;34.15;;;13.57;;
29576;SDS011;16509;53.862;10.672;2022-11-22T12:37:29;34.90;;;14.30;;
29576;SDS011;16509;53.862;10.672;2022-11-22T12:40:16;37.22;;;13.60;;
29576;SDS011;16509;53.862;10.672;2022-11-22T12:42:46;40.75;;;12.65;;
29576;SDS011;16509;53.862;10.672;2022-11-22T12:45:22;34.53;;;14.60;;
29576;SDS011;16509;53.862;10.672;2022-11-22T12:47:59;31.52;;;11.73;;
29576;SDS011;16509;53.862;10.672;2022-11-22T12:53:18;39.85;;;14.02;;
29576;SDS011;16509;53.862;10.672;2022-11-22T12:58:29;35.42;;;13.85;;
29576;SDS011;16509;53.862;10.672;2022-11-22T13:01:18;34.47;;;13.98;;
29576;SDS011;16509;53.862;10.672;2022-11-22T13:03:54;34.88;;;14.27;;
29576;SDS011;16509;53.862;10.672;2022-11-22T13:06:26;38.35;;;14.07;;
29576;SDS011;16509;53.862;10.672;2022-11-22T13:09:04;41.13;;;14.07;;
29576;SDS011;16509;53.862;10.672;2022-11-22T13:11:39;34.60;;;13.55;;
29576;SDS011;16509;53.862;10.672;2022-11-22T13:14:38;37.35;;;12.57;;
29576;SDS011;16509;53.862;10.672;2022-11-22T13:17:12;36.53;;;13.20;;
29576;SDS011;16509;53.862;10.672;2022-11-22T13:19:45;38.88;;;14.88;;
29576;SDS011;16509;53.862;10.672;2022-11-22T13:27:33;34.92;;;13.95;;
29576;SDS011;16509;53.862;10.672;2022-11-22T13:30:04;29.98;;;12.77;;
29576;SDS011;16509;53.862;10.672;2022-11-22T13:32:40;34.00;;;13.43;;
29576;SDS011;16509;53.862;10.672;2022-11-22T13:37:45;39.53;;;13.77;;
29576;SDS011;16509;53.862;10.672;2022-11-22T13:42:39;40.92;;;13.93;;
29576;SDS011;16509;53.862;10.672;2022-11-22T13:45:06;27.35;;;12.20;;
29576;SDS011;16509;53.862;10.672;2022-11-22T13:47:44;33.42;;;13.25;;
29576;SDS011;16509;53.862;10.672;2022-11-22T13:55:49;37.80;;;13.60;;
29576;SDS011;16509;53.862;10.672;2022-11-22T14:00:54;38.58;;;13.45;;
29576;SDS011;16509;53.862;10.672;2022-11-22T14:03:31;34.80;;;12.85;;
29576;SDS011;16509;53.862;10.672;2022-11-22T14:06:13;40.05;;;14.48;;
29576;SDS011;16509;53.862;10.672;2022-11-22T14:09:13;35.28;;;12.85;;
29576;SDS011;16509;53.862;10.672;2022-11-22T14:17:27;31.73;;;13.07;;
29576;SDS011;16509;53.862;10.672;2022-11-22T14:25:26;32.63;;;11.55;;
29576;SDS011;16509;53.862;10.672;2022-11-22T14:28:32;38.17;;;13.48;;
29576;SDS011;16509;53.862;10.672;2022-11-22T14:31:19;30.65;;;12.30;;
29576;SDS011;16509;53.862;10.672;2022-11-22T14:34:12;31.48;;;13.10;;
29576;SDS011;16509;53.862;10.672;2022-11-22T14:47:40;33.95;;;12.07;;
29576;SDS011;16509;53.862;10.672;2022-11-22T14:56:16;36.53;;;13.32;;
29576;SDS011;16509;53.862;10.672;2022-11-22T14:58:55;32.75;;;12.80;;
29576;SDS011;16509;53.862;10.672;2022-11-22T15:01:28;28.88;;;12.95;;
29576;SDS011;16509;53.862;10.672;2022-11-22T15:07:10;36.03;;;15.13;;
29576;SDS011;16509;53.862;10.672;2022-11-22T15:13:24;39.28;;;13.55;;
29576;SDS011;16509;53.862;10.672;2022-11-22T15:15:43;34.63;;;13.03;;
29576;SDS011;16509;53.862;10.672;2022-11-22T15:18:15;43.03;;;15.60;;
29576;SDS011;16509;53.862;10.672;2022-11-22T15:20:46;37.03;;;14.07;;
29576;SDS011;16509;53.862;10.672;2022-11-22T15:23:13;39.03;;;13.25;;
29576;SDS011;16509;53.862;10.672;2022-11-22T15:25:48;38.50;;;14.18;;
29576;SDS011;16509;53.862;10.672;2022-11-22T15:28:22;38.10;;;14.00;;
29576;SDS011;16509;53.862;10.672;2022-11-22T15:30:48;35.92;;;14.63;;
29576;SDS011;16509;53.862;10.672;2022-11-22T15:33:29;35.60;;;12.93;;
29576;SDS011;16509;53.862;10.672;2022-11-22T15:38:30;41.50;;;15.85;;
29576;SDS011;16509;53.862;10.672;2022-11-22T15:40:56;36.50;;;14.88;;
29576;SDS011;16509;53.862;10.672;2022-11-22T15:43:22;40.50;;;14.85;;
29576;SDS011;16509;53.862;10.672;2022-11-22T15:45:51;40.60;;;14.57;;
29576;SDS011;16509;53.862;10.672;2022-11-22T15:51:02;43.30;;;15.98;;
29576;SDS011;16509;53.862;10.672;2022-11-22T15:53:34;42.03;;;14.98;;
29576;SDS011;16509;53.862;10.672;2022-11-22T15:58:33;38.30;;;15.07;;
29576;SDS011;16509;53.862;10.672;2022-11-22T16:01:00;30.42;;;12.30;;
29576;SDS011;16509;53.862;10.672;2022-11-22T16:03:35;38.33;;;15.05;;
29576;SDS011;16509;53.862;10.672;2022-11-22T16:06:03;44.25;;;15.20;;
29576;SDS011;16509;53.862;10.672;2022-11-22T16:08:31;37.22;;;13.00;;
29576;SDS011;16509;53.862;10.672;2022-11-22T16:10:58;42.40;;;14.85;;
29576;SDS011;16509;53.862;10.672;2022-11-22T16:13:26;35.92;;;13.60;;
29576;SDS011;16509;53.862;10.672;2022-11-22T16:16:04;37.35;;;15.13;;
29576;SDS011;16509;53.862;10.672;2022-11-22T16:18:33;48.58;;;16.08;;
29576;SDS011;16509;53.862;10.672;2022-11-22T16:23:39;41.70;;;15.10;;
29576;SDS011;16509;53.862;10.672;2022-11-22T16:28:50;41.35;;;14.57;;
29576;SDS011;16509;53.862;10.672;2022-11-22T16:33:47;39.42;;;13.43;;
29576;SDS011;16509;53.862;10.672;2022-11-22T16:36:14;42.15;;;16.80;;
29576;SDS011;16509;53.862;10.672;2022-11-22T16:38:41;42.50;;;14.60;;
29576;SDS011;16509;53.862;10.672;2022-11-22T16:41:23;46.90;;;15.95;;
29576;SDS011;16509;53.862;10.672;2022-11-22T16:43:54;46.60;;;16.15;;
29576;SDS011;16509;53.862;10.672;2022-11-22T16:46:23;43.90;;;16.05;;
29576;SDS011;16509;53.862;10.672;2022-11-22T16:48:48;47.28;;;16.77;;
29576;SDS011;16509;53.862;10.672;2022-11-22T16:51:15;41.38;;;15.75;;
29576;SDS011;16509;53.862;10.672;2022-11-22T16:53:48;31.73;;;13.98;;
29576;SDS011;16509;53.862;10.672;2022-11-22T16:56:19;45.15;;;15.32;;
29576;SDS011;16509;53.862;10.672;2022-11-22T16:58:46;48.25;;;15.57;;